Time;durP1;ratioP1;P1;durP2;ratioP2;P2;SDS_P1;SDS_P2;PMS_P1;PMS_P2;Temp;Humidity;BMP_temperature;BMP_pressure;BME280_temperature;BME280_humidity;BME280_pressure;Samples;Min_cycle;Max_cycle;Signal;HPM_P1;HPM_P2
2022/03/05 00:01:08;;;;;;;43.60;23.03;;;;;;;0.29;98.70;99119.09;5095029;28;20310;-65
2022/03/05 00:03:35;;;;;;;43.80;21.50;;;;;;;0.29;98.79;99121.63;5096102;28;20225;-56
2022/03/05 00:06:02;;;;;;;46.43;22.57;;;;;;;0.27;98.59;99116.66;5095754;28;20222;-66
2022/03/05 00:08:29;;;;;;;47.03;21.83;;;;;;;0.27;98.54;99118.34;5096264;28;20455;-58
2022/03/05 00:10:56;;;;;;;52.70;23.17;;;;;;;0.07;98.89;99109.69;5094833;28;20225;-56
2022/03/05 00:13:23;;;;;;;47.60;22.93;;;;;;;0.06;99.38;99113.09;5096004;28;20202;-57
2022/03/05 00:15:51;;;;;;;47.73;22.00;;;;;;;0.15;99.20;99112.81;5098493;28;20501;-56
2022/03/05 00:18:19;;;;;;;44.23;21.57;;;;;;;0.15;99.49;99120.34;5097489;28;20205;-56
2022/03/05 00:20:47;;;;;;;48.80;23.13;;;;;;;0.01;99.53;99119.94;5097663;28;20248;-64
2022/03/05 00:23:15;;;;;;;49.50;21.70;;;;;;;0.12;99.51;99117.94;5096835;28;20452;-56
2022/03/05 00:25:43;;;;;;;45.43;21.17;;;;;;;0.15;99.21;99112.81;5095651;28;20221;-58
2022/03/05 00:28:10;;;;;;;50.20;22.50;;;;;;;0.02;99.55;99110.69;5095477;28;20448;-57
2022/03/05 00:30:37;;;;;;;46.67;23.00;;;;;;;0.08;99.61;99111.34;5096978;28;20852;-57
2022/03/05 00:33:04;;;;;;;47.47;21.87;;;;;;;0.01;99.34;99114.91;5096594;28;20448;-58
2022/03/05 00:35:33;;;;;;;52.50;23.33;;;;;;;0.03;99.73;99110.66;5096559;28;20491;-66
2022/03/05 00:38:01;;;;;;;46.17;22.13;;;;;;;-0.01;99.62;99104.06;5096187;28;20202;-57
2022/03/05 00:40:28;;;;;;;50.53;23.47;;;;;;;-0.03;99.97;99105.78;5096061;28;20500;-57
2022/03/05 00:42:55;;;;;;;57.57;24.03;;;;;;;0.03;100.00;99109.81;5096116;28;20198;-65
2022/03/05 00:45:22;;;;;;;48.90;22.27;;;;;;;0.15;100.00;99101.94;5097410;28;20699;-57
2022/03/05 00:47:48;;;;;;;47.77;23.07;;;;;;;0.18;100.00;99105.19;5095691;28;20498;-57
2022/03/05 00:50:17;;;;;;;51.80;23.07;;;;;;;0.19;100.00;99094.25;5096598;28;20222;-57
2022/03/05 00:52:45;;;;;;;49.50;22.97;;;;;;;0.20;99.77;99097.56;5097878;28;20462;-66
2022/03/05 00:55:12;;;;;;;50.57;23.40;;;;;;;0.13;99.45;99094.44;5095351;28;20468;-57
2022/03/05 00:57:39;;;;;;;47.97;22.40;;;;;;;0.12;99.16;99097.81;5095013;28;20957;-57
2022/03/05 01:00:11;;;;;;;49.40;23.63;;;;;;;0.02;99.45;99101.47;5095180;28;20495;-57
2022/03/05 01:02:38;;;;;;;49.17;23.07;;;;;;;-0.01;99.56;99097.34;5094743;28;20497;-57
2022/03/05 01:05:05;;;;;;;48.83;23.40;;;;;;;0.08;99.53;99096.25;5095600;28;20226;-57
2022/03/05 01:07:32;;;;;;;46.67;22.20;;;;;;;0.06;98.93;99087.97;5094628;28;20444;-57
2022/03/05 01:10:00;;;;;;;48.03;22.27;;;;;;;0.11;98.39;99096.16;5095583;28;20230;-57
2022/03/05 01:12:27;;;;;;;48.97;23.47;;;;;;;0.07;98.40;99094.63;5096730;28;20250;-66
2022/03/05 01:14:54;;;;;;;50.10;24.43;;;;;;;0.02;98.58;99096.44;5097761;28;20222;-57
2022/03/05 01:17:21;;;;;;;45.97;22.27;;;;;;;0.11;98.65;99095.34;5096679;28;20198;-57
2022/03/05 01:19:48;;;;;;;42.57;21.23;;;;;;;0.10;98.23;99094.53;5095100;28;20475;-57
2022/03/05 01:22:15;;;;;;;49.30;22.73;;;;;;;0.04;98.18;99094.72;5094987;28;20206;-57
2022/03/05 01:24:42;;;;;;;47.27;21.43;;;;;;;-0.01;98.36;99101.56;5094956;28;21063;-57
2022/03/05 01:27:11;;;;;;;45.93;23.27;;;;;;;0.03;98.47;99103.13;5094591;28;20213;-57
2022/03/05 01:29:38;;;;;;;50.87;23.40;;;;;;;0.06;98.13;99095.50;5096534;28;20734;-65
2022/03/05 01:32:07;;;;;;;47.70;23.80;;;;;;;0.04;98.21;99098.91;5095241;28;20460;-57
2022/03/05 01:34:34;;;;;;;46.10;22.03;;;;;;;-0.02;98.26;99095.72;5095975;28;20652;-65
2022/03/05 01:37:01;;;;;;;44.70;22.67;;;;;;;-0.08;98.80;99100.91;5094621;28;20620;-65
2022/03/05 01:39:28;;;;;;;45.13;21.20;;;;;;;-0.17;99.05;99098.66;5095683;28;20202;-59
2022/03/05 01:41:56;;;;;;;45.87;22.20;;;;;;;-0.26;99.47;99102.25;5094087;28;20251;-65
2022/03/05 01:44:25;;;;;;;43.93;22.70;;;;;;;-0.19;99.50;99102.91;5097274;28;20205;-57
2022/03/05 01:46:53;;;;;;;47.17;22.30;;;;;;;-0.41;99.60;99101.84;5095292;28;20201;-57
2022/03/05 01:49:20;;;;;;;46.23;22.13;;;;;;;-0.33;100.00;99100.78;5095781;28;20464;-56
2022/03/05 01:51:48;;;;;;;46.03;22.07;;;;;;;-0.34;99.78;99101.66;5096436;28;20464;-65
2022/03/05 01:54:15;;;;;;;46.53;22.80;;;;;;;-0.40;99.87;99109.34;5096383;28;20460;-57
2022/03/05 01:56:44;;;;;;;51.07;23.30;;;;;;;-0.39;99.60;99103.47;5095683;28;20472;-65
2022/03/05 01:59:14;;;;;;;48.20;21.77;;;;;;;-0.42;99.55;99117.78;5096275;28;20205;-65
2022/03/05 02:01:42;;;;;;;44.43;21.80;;;;;;;-0.50;99.17;99123.00;5094682;28;20233;-64
2022/03/05 02:04:09;;;;;;;49.20;23.53;;;;;;;-0.59;99.55;99111.53;5095569;28;20452;-65
2022/03/05 02:06:36;;;;;;;50.97;23.53;;;;;;;-0.59;100.00;99113.22;5096132;28;20567;-56
2022/03/05 02:09:03;;;;;;;51.93;23.77;;;;;;;-0.60;100.00;99116.59;5092590;28;20444;-65
2022/03/05 02:11:31;;;;;;;52.17;22.93;;;;;;;-0.64;100.00;99125.06;5092075;28;20472;-57
2022/03/05 02:13:59;;;;;;;49.33;23.60;;;;;;;-0.62;100.00;99138.41;5096829;28;20416;-56
2022/03/05 02:16:26;;;;;;;49.10;24.33;;;;;;;-0.57;100.00;99136.59;5096052;28;20468;-57
2022/03/05 02:18:56;;;;;;;51.57;23.03;;;;;;;-0.60;100.00;99141.72;5099573;28;20451;-56
2022/03/05 02:21:25;;;;;;;51.70;23.00;;;;;;;-0.65;100.00;99138.47;5095923;28;20875;-58
2022/03/05 02:23:53;;;;;;;50.97;23.17;;;;;;;-0.62;100.00;99138.41;5094666;28;20490;-66
2022/03/05 02:26:21;;;;;;;50.83;23.70;;;;;;;-0.74;100.00;99137.84;5096966;28;20471;-65
2022/03/05 02:28:48;;;;;;;49.60;24.03;;;;;;;-0.79;100.00;99136.31;5094824;28;20504;-58
2022/03/05 02:31:16;;;;;;;53.27;24.47;;;;;;;-0.86;100.00;99140.69;5096880;28;20466;-56
2022/03/05 02:33:43;;;;;;;55.40;23.27;;;;;;;-0.83;100.00;99138.09;5094533;28;20448;-57
2022/03/05 02:36:11;;;;;;;50.77;23.13;;;;;;;-0.85;100.00;99142.31;5093447;28;20495;-56
2022/03/05 02:38:39;;;;;;;49.67;23.77;;;;;;;-0.85;100.00;99141.50;5098785;28;20448;-64
2022/03/05 02:41:06;;;;;;;52.33;23.00;;;;;;;-0.81;100.00;99143.91;5099181;28;20529;-57
2022/03/05 02:43:33;;;;;;;52.80;23.60;;;;;;;-0.78;100.00;99138.81;5099382;28;20456;-57
2022/03/05 02:46:00;;;;;;;55.13;23.97;;;;;;;-0.78;100.00;99137.97;5097876;28;20455;-57
2022/03/05 02:48:27;;;;;;;49.73;23.70;;;;;;;-0.84;99.91;99138.13;5098785;28;20443;-65
2022/03/05 02:50:54;;;;;;;47.83;23.17;;;;;;;-0.90;100.00;99141.63;5098276;28;20475;-64
2022/03/05 02:53:21;;;;;;;54.50;23.63;;;;;;;-0.92;100.00;99140.84;5099139;28;20455;-65
2022/03/05 02:55:50;;;;;;;49.57;23.20;;;;;;;-0.99;100.00;99139.31;5099114;28;20463;-66
2022/03/05 02:58:16;;;;;;;51.33;24.90;;;;;;;-0.96;100.00;99142.59;5099463;28;20448;-57
2022/03/05 03:00:44;;;;;;;49.33;22.63;;;;;;;-0.93;100.00;99145.03;5097943;28;20491;-66
2022/03/05 03:03:11;;;;;;;50.63;23.87;;;;;;;-0.95;100.00;99140.91;5097903;28;20454;-66
2022/03/05 03:05:38;;;;;;;50.90;24.50;;;;;;;-0.92;100.00;99145.84;5098560;28;20487;-65
2022/03/05 03:08:06;;;;;;;45.93;22.50;;;;;;;-0.98;100.00;99148.50;5097693;28;20470;-57
2022/03/05 03:10:33;;;;;;;52.17;23.60;;;;;;;-1.02;100.00;99149.44;5098318;28;20506;-57
2022/03/05 03:13:02;;;;;;;51.27;24.17;;;;;;;-0.97;100.00;99153.47;5099798;28;20456;-65
2022/03/05 03:15:30;;;;;;;49.73;24.00;;;;;;;-0.89;100.00;99155.00;5098375;28;20545;-65
2022/03/05 03:17:57;;;;;;;49.50;23.10;;;;;;;-0.95;100.00;99160.97;5097783;28;20451;-66
2022/03/05 03:20:26;;;;;;;45.60;22.50;;;;;;;-0.96;99.93;99164.34;5097554;28;20510;-62
2022/03/05 03:22:53;;;;;;;51.27;22.27;;;;;;;-1.05;100.00;99164.56;5096002;28;20433;-57
2022/03/05 03:25:20;;;;;;;49.17;21.93;;;;;;;-1.13;100.00;99162.25;5096834;28;20487;-57
2022/03/05 03:27:48;;;;;;;55.20;24.33;;;;;;;-1.26;100.00;99165.91;5098160;28;20444;-66
2022/03/05 03:30:16;;;;;;;57.30;24.20;;;;;;;-1.22;100.00;99170.81;5097570;28;20487;-57
2022/03/05 03:32:44;;;;;;;50.00;23.93;;;;;;;-1.26;100.00;99161.69;5097411;28;20831;-66
2022/03/05 03:35:12;;;;;;;54.00;25.10;;;;;;;-1.24;100.00;99165.00;5098738;28;21074;-61
2022/03/05 03:37:40;;;;;;;53.87;25.33;;;;;;;-1.27;100.00;99170.09;5099879;28;20420;-57
2022/03/05 03:40:10;;;;;;;55.53;25.73;;;;;;;-1.16;100.00;99168.16;5098385;28;20472;-57
2022/03/05 03:42:38;;;;;;;54.23;25.27;;;;;;;-1.15;100.00;99166.47;5096500;28;20488;-57
2022/03/05 03:45:06;;;;;;;56.70;25.10;;;;;;;-1.15;100.00;99161.47;5097996;28;20541;-65
2022/03/05 03:47:35;;;;;;;55.50;25.47;;;;;;;-1.27;100.00;99159.25;5095806;28;20459;-64
2022/03/05 03:50:02;;;;;;;53.53;25.03;;;;;;;-1.41;100.00;99172.09;5097984;28;20480;-65
2022/03/05 03:52:29;;;;;;;63.07;25.40;;;;;;;-1.33;100.00;99164.41;5096973;28;20452;-56
2022/03/05 03:54:56;;;;;;;60.33;27.87;;;;;;;-1.42;100.00;99165.44;5098162;28;20477;-65
2022/03/05 03:57:23;;;;;;;64.07;27.10;;;;;;;-1.61;100.00;99168.31;5097524;28;20881;-64
2022/03/05 03:59:51;;;;;;;57.70;26.63;;;;;;;-1.51;100.00;99173.13;5096527;28;20476;-64
2022/03/05 04:02:20;;;;;;;57.60;26.03;;;;;;;-1.39;100.00;99166.19;5095479;28;20488;-56
2022/03/05 04:04:49;;;;;;;61.67;26.90;;;;;;;-1.32;100.00;99174.38;5096774;28;20480;-64
2022/03/05 04:10:01;;;;;;;58.77;25.23;;;;;;;-1.11;100.00;99174.75;5096776;28;20516;-64
2022/03/05 04:12:28;;;;;;;60.70;26.33;;;;;;;-1.06;100.00;99177.97;5097298;28;20444;-65
2022/03/05 04:14:55;;;;;;;66.50;27.80;;;;;;;-1.05;100.00;99179.63;5096856;28;20487;-65
2022/03/05 04:17:22;;;;;;;69.40;27.53;;;;;;;-0.96;100.00;99181.91;5097131;28;20451;-57
2022/03/05 04:19:51;;;;;;;68.70;27.40;;;;;;;-0.88;100.00;99191.78;5095694;28;20487;-65
2022/03/05 04:22:18;;;;;;;83.10;30.67;;;;;;;-0.78;100.00;99191.53;5095186;28;20491;-65
2022/03/05 04:24:45;;;;;;;93.00;30.73;;;;;;;-0.74;100.00;99194.78;5095494;28;20456;-65
2022/03/05 04:27:13;;;;;;;108.87;31.93;;;;;;;-0.63;100.00;99192.81;5096699;28;20811;-56
2022/03/05 04:29:40;;;;;;;140.87;30.63;;;;;;;-0.54;100.00;99197.59;5097159;28;20471;-64
2022/03/05 04:32:08;;;;;;;126.23;31.07;;;;;;;-0.50;100.00;99195.84;5095236;28;20856;-65
2022/03/05 04:34:35;;;;;;;114.10;30.63;;;;;;;-0.57;100.00;99186.81;5093727;28;20459;-66
2022/03/05 04:37:04;;;;;;;174.67;29.67;;;;;;;-0.48;100.00;99186.59;5094040;28;20471;-66
2022/03/05 04:39:32;;;;;;;74.90;26.70;;;;;;;-0.46;100.00;99184.88;5095509;28;20463;-66
2022/03/05 04:41:59;;;;;;;155.03;28.50;;;;;;;-0.49;100.00;99195.00;5095972;28;20850;-57
2022/03/05 04:44:26;;;;;;;152.70;29.73;;;;;;;-0.42;100.00;99196.47;5095213;28;20459;-57
2022/03/05 04:46:52;;;;;;;124.30;26.60;;;;;;;-0.41;100.00;99200.63;5093967;28;20450;-57
2022/03/05 04:49:19;;;;;;;114.10;25.13;;;;;;;-0.50;100.00;99209.22;5097156;28;20217;-58
2022/03/05 04:51:47;;;;;;;165.63;26.50;;;;;;;-0.46;100.00;99200.75;5099217;28;20468;-66
2022/03/05 04:54:15;;;;;;;165.90;26.27;;;;;;;-0.41;100.00;99205.66;5096311;28;20228;-58
2022/03/05 04:56:43;;;;;;;151.43;26.30;;;;;;;-0.45;100.00;99206.59;5096428;28;20491;-57
2022/03/05 04:59:09;;;;;;;118.40;25.67;;;;;;;-0.53;100.00;99203.44;5096367;28;20452;-57
2022/03/05 05:01:36;;;;;;;80.17;24.80;;;;;;;-0.57;100.00;99201.88;5094906;28;20499;-66
2022/03/05 05:04:04;;;;;;;124.70;26.90;;;;;;;-0.51;100.00;99196.72;5096282;28;20444;-58
2022/03/05 05:06:31;;;;;;;155.87;25.07;;;;;;;-0.42;100.00;99195.66;5095301;28;20501;-66
2022/03/05 05:08:58;;;;;;;124.90;25.67;;;;;;;-0.47;100.00;99194.09;5096582;28;20432;-66
2022/03/05 05:11:26;;;;;;;108.33;24.53;;;;;;;-0.42;100.00;99209.03;5094707;28;20478;-58
2022/03/05 05:13:53;;;;;;;166.57;26.13;;;;;;;-0.41;100.00;99215.69;5097216;28;20448;-57
2022/03/05 05:16:20;;;;;;;104.23;24.40;;;;;;;-0.49;100.00;99210.06;5095656;28;20482;-65
2022/03/05 05:21:29;;;;;;;137.83;21.40;;;;;;;-0.43;100.00;99214.94;5095278;28;21039;-66
2022/03/05 05:23:56;;;;;;;105.93;21.23;;;;;;;-0.38;100.00;99224.84;5096554;28;20424;-66
2022/03/05 05:26:23;;;;;;;136.80;21.27;;;;;;;-0.25;100.00;99213.63;5097992;28;20495;-66
2022/03/05 05:28:52;;;;;;;97.50;20.90;;;;;;;-0.27;100.00;99228.72;5095978;28;20452;-66
2022/03/05 05:31:19;;;;;;;121.33;21.90;;;;;;;-0.20;100.00;99226.91;5094076;28;20723;-66
2022/03/05 05:33:46;;;;;;;68.40;20.23;;;;;;;-0.37;100.00;99234.03;5095034;28;20988;-57
2022/03/05 05:36:13;;;;;;;102.07;21.57;;;;;;;-0.37;100.00;99234.88;5096339;28;20472;-66
2022/03/05 05:38:40;;;;;;;106.33;20.20;;;;;;;-0.42;100.00;99236.66;5095698;28;20456;-58
2022/03/05 05:41:07;;;;;;;104.33;20.47;;;;;;;-0.54;100.00;99242.00;5096473;28;20476;-67
2022/03/05 05:43:34;;;;;;;95.13;20.77;;;;;;;-0.49;100.00;99238.50;5093994;28;20561;-58
2022/03/05 05:46:03;;;;;;;118.10;21.70;;;;;;;-0.37;100.00;99247.41;5092800;28;20484;-66
2022/03/05 05:48:30;;;;;;;83.43;21.23;;;;;;;-0.29;100.00;99253.09;5092669;28;20807;-58
2022/03/05 05:50:57;;;;;;;65.43;21.17;;;;;;;-0.18;100.00;99250.28;5094404;28;20988;-57
2022/03/05 05:53:25;;;;;;;126.27;22.30;;;;;;;-0.12;100.00;99255.13;5095200;28;21015;-58
2022/03/05 05:55:53;;;;;;;69.37;22.00;;;;;;;-0.08;100.00;99260.94;5094311;28;20476;-60
2022/03/05 05:58:20;;;;;;;104.50;23.20;;;;;;;-0.02;100.00;99258.25;5096006;28;20448;-58
2022/03/05 06:00:47;;;;;;;69.50;21.67;;;;;;;-0.03;100.00;99264.13;5095305;28;20232;-58
2022/03/05 06:03:16;;;;;;;152.17;25.33;;;;;;;0.00;100.00;99256.53;5095934;28;20487;-66
2022/03/05 06:05:42;;;;;;;148.37;24.30;;;;;;;-0.27;100.00;99261.38;5096485;28;20482;-58
2022/03/05 06:08:09;;;;;;;80.57;24.53;;;;;;;-0.40;100.00;99265.09;5096403;28;20205;-58
2022/03/05 06:10:36;;;;;;;78.60;23.80;;;;;;;-0.30;100.00;99260.66;5095544;28;20471;-57
2022/03/05 06:13:03;;;;;;;100.23;22.93;;;;;;;-0.17;100.00;99268.72;5097830;28;20455;-65
2022/03/05 06:15:30;;;;;;;102.10;25.87;;;;;;;-0.22;100.00;99275.53;5100312;28;20562;-67
2022/03/05 06:17:57;;;;;;;85.10;24.30;;;;;;;-0.06;100.00;99274.25;5100009;28;20960;-66
2022/03/05 06:20:26;;;;;;;72.33;24.50;;;;;;;0.12;100.00;99283.84;5098682;28;20264;-59
2022/03/05 06:22:54;;;;;;;123.37;26.17;;;;;;;0.14;100.00;99281.28;5100180;28;20491;-66
2022/03/05 06:25:21;;;;;;;83.00;23.90;;;;;;;0.19;100.00;99290.34;5099034;28;20923;-66
2022/03/05 06:27:48;;;;;;;96.47;24.27;;;;;;;0.24;100.00;99289.44;5098722;28;20455;-66
2022/03/05 06:30:15;;;;;;;71.50;22.97;;;;;;;0.24;100.00;99292.75;5099156;28;20475;-58
2022/03/05 06:32:42;;;;;;;72.63;23.73;;;;;;;0.39;100.00;99296.53;5099044;28;20595;-66
2022/03/05 06:35:09;;;;;;;55.60;19.17;;;;;;;0.38;100.00;99294.91;5099669;28;20233;-58
2022/03/05 06:37:38;;;;;;;73.47;20.53;;;;;;;0.32;100.00;99305.94;5098743;28;20212;-66
2022/03/05 06:40:07;;;;;;;86.37;21.00;;;;;;;0.30;100.00;99312.72;5100734;28;20232;-58
2022/03/05 06:42:35;;;;;;;73.63;21.00;;;;;;;0.15;100.00;99298.84;5099797;28;20236;-67
2022/03/05 06:45:01;;;;;;;65.00;21.17;;;;;;;0.19;100.00;99310.47;5099773;28;20229;-58
2022/03/05 06:47:30;;;;;;;110.43;20.97;;;;;;;0.21;100.00;99313.78;5099474;28;20451;-66
2022/03/05 06:49:57;;;;;;;83.03;23.20;;;;;;;0.29;100.00;99320.28;5097924;28;21071;-59
2022/03/05 06:52:24;;;;;;;105.17;20.73;;;;;;;0.45;100.00;99319.00;5098683;28;20682;-58
2022/03/05 06:54:52;;;;;;;65.90;24.27;;;;;;;0.47;100.00;99323.97;5096431;28;20660;-58
2022/03/05 06:57:19;;;;;;;69.33;22.57;;;;;;;0.54;100.00;99331.31;5097386;28;20249;-66
2022/03/05 06:59:46;;;;;;;51.03;22.37;;;;;;;0.56;100.00;99324.56;5099291;28;20230;-66
2022/03/05 07:02:13;;;;;;;55.77;20.60;;;;;;;0.67;100.00;99326.81;5100410;28;20249;-66
2022/03/05 07:04:40;;;;;;;60.67;22.20;;;;;;;0.68;100.00;99329.25;5099170;28;20594;-66
2022/03/05 07:07:08;;;;;;;74.37;23.23;;;;;;;0.77;100.00;99327.34;5098172;28;20202;-58
2022/03/05 07:09:35;;;;;;;53.03;23.30;;;;;;;0.85;100.00;99330.47;5099425;28;20216;-60
2022/03/05 07:12:05;;;;;;;59.20;22.23;;;;;;;0.82;100.00;99335.59;5098311;28;20213;-58
2022/03/05 07:14:32;;;;;;;65.53;23.07;;;;;;;0.74;100.00;99327.44;5096999;28;20671;-59
2022/03/05 07:16:59;;;;;;;52.03;22.33;;;;;;;0.87;100.00;99341.31;5100313;28;20198;-67
2022/03/05 07:19:26;;;;;;;58.07;23.90;;;;;;;0.80;100.00;99343.19;5097442;28;20213;-58
2022/03/05 07:21:53;;;;;;;56.00;21.50;;;;;;;0.71;100.00;99345.16;5097657;28;20209;-65
2022/03/05 07:24:20;;;;;;;56.33;21.57;;;;;;;0.63;100.00;99346.16;5098168;28;20198;-67
2022/03/05 07:26:47;;;;;;;60.17;22.10;;;;;;;0.59;100.00;99344.63;5097739;28;20226;-66
2022/03/05 07:29:15;;;;;;;61.10;22.40;;;;;;;0.55;100.00;99343.03;5098608;28;20201;-59
2022/03/05 07:31:42;;;;;;;61.90;23.53;;;;;;;0.49;100.00;99343.19;5097755;28;20272;-66
2022/03/05 07:34:09;;;;;;;59.97;24.57;;;;;;;0.57;100.00;99346.34;5097572;28;20190;-58
2022/03/05 07:36:36;;;;;;;63.60;25.93;;;;;;;0.66;100.00;99341.03;5098272;28;20209;-66
2022/03/05 07:39:04;;;;;;;67.07;25.30;;;;;;;0.71;100.00;99340.13;5098077;28;20592;-58
2022/03/05 07:41:30;;;;;;;72.80;28.67;;;;;;;0.77;100.00;99337.44;5097979;28;20202;-58
2022/03/05 07:43:57;;;;;;;75.73;30.03;;;;;;;0.85;100.00;99341.38;5098955;28;20238;-58
2022/03/05 07:46:26;;;;;;;76.27;28.37;;;;;;;0.96;100.00;99341.06;5096903;28;20253;-66
2022/03/05 07:48:53;;;;;;;64.93;27.30;;;;;;;1.10;100.00;99336.44;5096895;28;20206;-66
2022/03/05 07:51:20;;;;;;;69.63;28.23;;;;;;;1.12;100.00;99339.72;5096911;28;20233;-67
2022/03/05 07:53:47;;;;;;;86.67;28.30;;;;;;;1.30;100.00;99345.09;5097344;28;20202;-58
2022/03/05 07:56:13;;;;;;;72.80;29.60;;;;;;;1.42;100.00;99338.84;5097703;28;20217;-66
2022/03/05 07:58:40;;;;;;;71.43;28.67;;;;;;;1.35;100.00;99345.78;5096658;28;20198;-58
2022/03/05 08:01:07;;;;;;;69.57;28.73;;;;;;;1.30;100.00;99343.38;5097289;28;20213;-58
2022/03/05 08:03:35;;;;;;;74.57;30.27;;;;;;;1.54;100.00;99346.88;5100587;28;20241;-58
2022/03/05 08:06:02;;;;;;;75.23;30.50;;;;;;;1.43;100.00;99341.34;5097877;28;20246;-58
2022/03/05 08:08:29;;;;;;;69.47;29.07;;;;;;;1.65;100.00;99344.00;5097011;28;20288;-59
2022/03/05 08:10:57;;;;;;;67.33;28.73;;;;;;;1.78;100.00;99349.50;5097685;28;20218;-66
2022/03/05 08:13:30;;;;;;;80.07;32.07;;;;;;;1.95;100.00;99357.34;5098200;28;20202;-58
2022/03/05 08:15:59;;;;;;;65.23;29.97;;;;;;;1.98;100.00;99352.19;5097230;28;20248;-67
2022/03/05 08:18:26;;;;;;;71.00;31.13;;;;;;;1.99;100.00;99361.38;5098207;28;20206;-67
2022/03/05 08:20:55;;;;;;;69.87;30.57;;;;;;;2.09;100.00;99364.41;5097153;28;20268;-59
2022/03/05 08:23:22;;;;;;;62.13;29.60;;;;;;;2.22;100.00;99364.84;5096028;28;20324;-67
2022/03/05 08:25:49;;;;;;;65.80;30.73;;;;;;;2.42;100.00;99367.53;5096282;28;20324;-67
2022/03/05 08:28:18;;;;;;;59.33;28.87;;;;;;;2.42;100.00;99367.53;5096732;28;20236;-67
2022/03/05 08:30:45;;;;;;;66.37;28.00;;;;;;;2.48;99.64;99364.78;5097099;28;20222;-67
2022/03/05 08:33:13;;;;;;;74.13;33.87;;;;;;;2.59;98.34;99358.53;5096205;28;20214;-67
2022/03/05 08:35:40;;;;;;;64.10;30.47;;;;;;;2.56;97.23;99361.16;5096234;28;20212;-59
2022/03/05 08:38:09;;;;;;;58.13;26.40;;;;;;;2.59;97.75;99359.38;5095338;28;20202;-67
2022/03/05 08:40:37;;;;;;;54.67;26.17;;;;;;;2.69;97.48;99359.84;5097630;28;20221;-68
2022/03/05 08:43:04;;;;;;;58.33;27.43;;;;;;;2.43;98.48;99354.03;5095610;28;20586;-67
2022/03/05 08:45:31;;;;;;;61.07;27.63;;;;;;;2.57;99.22;99347.69;5095126;28;20722;-67
2022/03/05 08:47:59;;;;;;;71.93;28.77;;;;;;;2.87;98.90;99359.19;5094792;28;20198;-59
2022/03/05 08:50:26;;;;;;;59.40;28.67;;;;;;;3.01;98.65;99353.63;5096071;28;20213;-67
2022/03/05 08:52:52;;;;;;;62.77;28.20;;;;;;;3.21;98.08;99345.31;5098783;28;20233;-59
2022/03/05 08:55:21;;;;;;;60.97;28.70;;;;;;;3.25;95.78;99346.84;5095680;28;20222;-59
2022/03/05 08:57:48;;;;;;;62.57;26.97;;;;;;;3.25;96.18;99346.00;5096047;28;20204;-59
2022/03/05 09:00:17;;;;;;;63.23;26.87;;;;;;;3.16;96.20;99344.66;5096781;28;20222;-59
2022/03/05 09:02:44;;;;;;;59.27;26.00;;;;;;;3.07;97.24;99345.81;5098698;28;20699;-59
2022/03/05 09:05:13;;;;;;;61.67;27.40;;;;;;;3.10;97.26;99344.91;5094005;28;20230;-58
2022/03/05 09:07:40;;;;;;;59.50;26.23;;;;;;;3.14;96.99;99346.41;5096314;28;20284;-58
2022/03/05 09:10:08;;;;;;;62.63;29.37;;;;;;;3.07;97.60;99345.00;5095693;28;20220;-58
2022/03/05 09:12:36;;;;;;;66.87;28.80;;;;;;;3.05;98.22;99352.63;5095965;28;20217;-58
2022/03/05 09:15:05;;;;;;;62.50;27.07;;;;;;;3.03;99.10;99341.78;5095583;28;20230;-59
2022/03/05 09:17:33;;;;;;;64.07;28.20;;;;;;;3.12;99.12;99348.19;5094989;28;20200;-67
2022/03/05 09:20:01;;;;;;;61.93;28.20;;;;;;;3.14;98.11;99343.88;5094447;28;20241;-67
2022/03/05 09:22:28;;;;;;;65.43;27.27;;;;;;;3.24;97.75;99347.72;5095774;28;20204;-59
2022/03/05 09:24:56;;;;;;;56.03;25.83;;;;;;;3.25;97.75;99353.59;5095932;28;20699;-58
2022/03/05 09:27:23;;;;;;;61.53;25.97;;;;;;;3.14;96.57;99352.31;5095199;28;20647;-58
2022/03/05 09:29:52;;;;;;;55.83;25.37;;;;;;;3.00;97.45;99359.56;5094470;28;20226;-58
2022/03/05 09:32:19;;;;;;;64.67;27.77;;;;;;;3.10;98.41;99360.06;5096767;28;20609;-58
2022/03/05 09:34:46;;;;;;;55.47;24.77;;;;;;;3.16;98.26;99359.81;5095572;28;20226;-59
2022/03/05 09:37:13;;;;;;;56.13;26.07;;;;;;;3.17;97.69;99366.50;5095203;28;20293;-59
2022/03/05 09:39:40;;;;;;;63.20;26.87;;;;;;;3.33;97.37;99362.53;5095509;28;20202;-67
2022/03/05 09:42:07;;;;;;;61.70;26.50;;;;;;;3.21;96.39;99373.09;5094421;28;20202;-67
2022/03/05 09:44:34;;;;;;;61.00;26.50;;;;;;;3.26;95.90;99365.34;5094253;28;20610;-59
2022/03/05 09:47:06;;;;;;;60.03;27.23;;;;;;;3.17;95.69;99376.59;5093893;28;20763;-66
2022/03/05 09:49:37;;;;;;;59.73;27.00;;;;;;;3.29;96.46;99366.06;5094563;28;20205;-58
2022/03/05 09:52:07;;;;;;;68.27;28.00;;;;;;;3.58;96.66;99371.72;5094684;28;20210;-58
2022/03/05 09:54:35;;;;;;;65.23;29.30;;;;;;;3.88;96.28;99376.44;5097432;28;20281;-58
2022/03/05 09:57:02;;;;;;;68.23;29.47;;;;;;;4.06;95.21;99379.03;5094000;28;20225;-58
2022/03/05 09:59:29;;;;;;;59.87;26.80;;;;;;;3.98;93.24;99375.97;5095212;28;20589;-66
2022/03/05 10:01:58;;;;;;;69.27;29.40;;;;;;;4.11;94.26;99376.31;5095837;28;20261;-58
2022/03/05 10:04:26;;;;;;;70.10;30.03;;;;;;;4.14;94.28;99375.38;5095518;28;20693;-59
2022/03/05 10:07:10;;;;;;;77.27;30.60;;;;;;;4.32;95.05;99372.88;5094826;28;20212;-59
2022/03/05 10:09:38;;;;;;;61.33;28.00;;;;;;;4.49;94.81;99376.44;5091683;28;20209;-58
2022/03/05 10:12:27;;;;;;;67.10;30.23;;;;;;;4.56;93.77;99376.97;5094271;28;20208;-66
2022/03/05 10:15:12;;;;;;;61.20;28.60;;;;;;;4.62;93.16;99382.59;5095501;28;20217;-59
2022/03/05 10:17:51;;;;;;;59.30;27.77;;;;;;;4.88;92.69;99378.94;5094556;28;20244;-58
2022/03/05 10:20:20;;;;;;;64.40;29.13;;;;;;;4.89;91.59;99385.66;5094865;28;20229;-66
2022/03/05 10:23:01;;;;;;;57.43;27.00;;;;;;;4.98;90.93;99379.34;5095072;28;20592;-59
2022/03/05 10:25:34;;;;;;;55.17;26.40;;;;;;;4.84;90.56;99371.53;5094418;28;20705;-58
2022/03/05 10:28:05;;;;;;;60.43;28.60;;;;;;;4.79;91.32;99376.81;5094613;28;20264;-67
2022/03/05 10:30:34;;;;;;;60.43;29.23;;;;;;;4.78;91.79;99387.84;5095795;28;20233;-66
2022/03/05 10:33:01;;;;;;;62.50;27.63;;;;;;;4.91;91.15;99383.03;5092772;28;20214;-67
2022/03/05 10:35:30;;;;;;;63.67;30.13;;;;;;;5.01;90.23;99389.34;5093070;28;20221;-66
2022/03/05 10:37:57;;;;;;;63.87;30.43;;;;;;;5.17;90.35;99384.41;5093552;28;20667;-66
2022/03/05 10:40:37;;;;;;;70.20;33.00;;;;;;;5.39;90.04;99379.19;5094202;28;20316;-58
2022/03/05 10:43:06;;;;;;;63.03;31.23;;;;;;;5.61;89.32;99379.00;5095056;28;20893;-67
2022/03/05 10:45:52;;;;;;;61.23;29.23;;;;;;;5.82;88.26;99384.78;5093543;28;20225;-68
2022/03/05 10:48:27;;;;;;;56.83;30.27;;;;;;;5.99;86.04;99382.28;5094572;28;20663;-58
2022/03/05 10:51:02;;;;;;;58.33;27.03;;;;;;;6.21;83.59;99381.22;5094376;28;20321;-58
2022/03/05 10:53:41;;;;;;;59.20;28.97;;;;;;;6.65;82.44;99388.31;5093557;28;20202;-67
2022/03/05 10:56:26;;;;;;;65.37;28.50;;;;;;;7.00;84.14;99377.13;5092806;28;20302;-67
2022/03/05 10:59:10;;;;;;;59.53;28.50;;;;;;;6.92;82.98;99379.28;5094144;28;20202;-67
2022/03/05 11:01:39;;;;;;;53.70;27.67;;;;;;;6.80;81.75;99373.09;5095851;28;20222;-68
2022/03/05 11:04:08;;;;;;;54.77;27.83;;;;;;;6.75;83.64;99361.56;5094541;28;20229;-67
2022/03/05 11:06:42;;;;;;;62.90;33.90;;;;;;;7.02;83.62;99359.28;5097323;28;20240;-58
2022/03/05 11:09:12;;;;;;;56.07;30.27;;;;;;;7.37;83.67;99349.75;5095185;28;20213;-66
2022/03/05 11:11:40;;;;;;;55.50;28.43;;;;;;;7.30;77.74;99356.06;5097794;28;20233;-67
2022/03/05 11:14:08;;;;;;;58.27;30.57;;;;;;;7.98;83.69;99349.75;5096459;28;20210;-67
2022/03/05 11:16:34;;;;;;;56.73;29.60;;;;;;;8.11;77.25;99353.22;5096086;28;20595;-58
2022/03/05 11:19:02;;;;;;;51.23;28.10;;;;;;;7.95;74.99;99353.28;5097944;28;20212;-67
2022/03/05 11:21:30;;;;;;;51.60;28.60;;;;;;;8.39;80.15;99344.81;5097123;28;20221;-59
2022/03/05 11:23:59;;;;;;;50.00;26.60;;;;;;;8.52;74.01;99352.56;5098710;28;20284;-67
2022/03/05 11:26:29;;;;;;;50.20;28.33;;;;;;;8.78;72.40;99354.34;5098024;28;20294;-59